Time;durP1;ratioP1;P1;durP2;ratioP2;P2;SDS_P1;SDS_P2;PMS_P1;PMS_P2;Temp;Humidity;BMP_temperature;BMP_pressure;BME280_temperature;BME280_humidity;BME280_pressure;Samples;Min_cycle;Max_cycle;Signal;HPM_P1;HPM_P2
2023/05/07 00:02:13;;;;;;;18.90;15.40;;;7.70;99.90;;;;;;10218714;23;20189;-63
2023/05/07 00:06:14;;;;;;;17.50;14.07;;;7.60;99.90;;;;;;10220571;23;20179;-65
2023/05/07 00:10:15;;;;;;;20.17;14.00;;;7.60;99.90;;;;;;10219757;23;20167;-64
2023/05/07 00:14:16;;;;;;;19.27;14.73;;;7.70;99.90;;;;;;10220821;23;20166;-64
2023/05/07 00:18:20;;;;;;;17.07;14.70;;;7.60;99.90;;;;;;10244547;23;20187;-65
2023/05/07 00:22:21;;;;;;;16.30;14.20;;;7.70;99.90;;;;;;10222487;23;20158;-65
2023/05/07 00:26:22;;;;;;;17.10;13.90;;;7.70;99.90;;;;;;10222033;23;20154;-65
2023/05/07 00:30:23;;;;;;;15.50;13.17;;;7.60;99.90;;;;;;10221795;23;20178;-65
2023/05/07 00:34:24;;;;;;;16.33;12.90;;;7.60;99.90;;;;;;10220399;23;20178;-66
2023/05/07 00:38:25;;;;;;;17.27;13.13;;;7.60;99.90;;;;;;10218931;23;20186;-63
2023/05/07 00:42:26;;;;;;;15.20;12.10;;;7.60;99.90;;;;;;10220365;23;20163;-64
2023/05/07 00:46:27;;;;;;;21.23;14.77;;;7.60;99.90;;;;;;10219770;23;20166;-64
2023/05/07 00:50:29;;;;;;;16.13;12.27;;;7.60;99.90;;;;;;10220081;23;20186;-64
2023/05/07 00:54:29;;;;;;;14.40;12.90;;;7.70;99.90;;;;;;10246457;23;20250;-64
2023/05/07 00:58:30;;;;;;;14.20;12.27;;;7.70;99.90;;;;;;10221417;23;20178;-65
2023/05/07 01:02:32;;;;;;;15.87;12.70;;;7.60;99.90;;;;;;10221173;23;20177;-66
2023/05/07 01:06:33;;;;;;;17.37;13.73;;;7.60;99.90;;;;;;10221461;23;20209;-75
2023/05/07 01:10:34;;;;;;;15.07;11.70;;;7.60;99.90;;;;;;10222060;23;20154;-67
2023/05/07 01:14:35;;;;;;;15.97;12.70;;;7.60;99.90;;;;;;10219630;23;20173;-65
2023/05/07 01:18:36;;;;;;;16.83;12.53;;;7.60;99.90;;;;;;10223406;23;20186;-64
2023/05/07 01:22:43;;;;;;;14.83;13.07;;;7.60;99.90;;;;;;10221282;23;20150;-65
2023/05/07 01:26:44;;;;;;;17.13;13.67;;;7.60;99.90;;;;;;10220626;23;20208;-64
2023/05/07 01:30:49;;;;;;;17.67;13.20;;;7.60;99.90;;;;;;10218308;23;20163;-64
2023/05/07 01:34:52;;;;;;;18.93;13.37;;;7.60;99.90;;;;;;10219259;23;20230;-65
2023/05/07 01:38:53;;;;;;;16.70;12.97;;;7.60;99.90;;;;;;10219775;23;20189;-63
2023/05/07 01:42:55;;;;;;;16.10;13.57;;;7.60;99.90;;;;;;10221822;23;20175;-64
2023/05/07 01:46:57;;;;;;;16.83;13.30;;;7.60;99.90;;;;;;10220793;23;20158;-65
2023/05/07 01:50:58;;;;;;;17.93;13.90;;;7.60;99.90;;;;;;10220535;23;20159;-63
2023/05/07 01:54:59;;;;;;;17.50;14.90;;;7.60;99.90;;;;;;10244190;23;20167;-67
2023/05/07 01:59:01;;;;;;;18.07;14.43;;;7.60;99.90;;;;;;10219246;23;20240;-64
2023/05/07 02:03:02;;;;;;;19.10;14.37;;;7.60;99.90;;;;;;10195108;23;20183;-65
2023/05/07 02:07:04;;;;;;;18.70;13.13;;;7.60;99.90;;;;;;10220540;23;20240;-65
2023/05/07 02:11:04;;;;;;;18.43;12.83;;;7.60;99.90;;;;;;10220557;23;20155;-65
2023/05/07 02:15:06;;;;;;;16.80;14.37;;;7.60;99.90;;;;;;10219187;23;20273;-65
2023/05/07 02:19:07;;;;;;;18.10;14.67;;;7.60;99.90;;;;;;10218959;23;20183;-64
2023/05/07 02:23:08;;;;;;;17.43;14.93;;;7.60;99.90;;;;;;10242702;23;20170;-64
2023/05/07 02:27:12;;;;;;;22.83;15.13;;;7.60;99.90;;;;;;10219961;23;20154;-65
2023/05/07 02:31:13;;;;;;;17.13;14.37;;;7.70;99.90;;;;;;10217436;23;20169;-64
2023/05/07 02:35:14;;;;;;;19.87;14.97;;;7.60;99.90;;;;;;10220494;23;20162;-62
2023/05/07 02:39:15;;;;;;;20.80;15.97;;;7.60;99.90;;;;;;10220118;23;20178;-67
2023/05/07 02:43:16;;;;;;;18.70;14.70;;;7.60;99.90;;;;;;10218706;23;20159;-67
2023/05/07 02:47:17;;;;;;;18.50;15.00;;;7.60;99.90;;;;;;10217036;23;20167;-66
2023/05/07 02:51:23;;;;;;;18.10;15.37;;;7.60;99.90;;;;;;10219649;23;20221;-67
2023/05/07 02:55:24;;;;;;;19.37;15.57;;;7.60;99.90;;;;;;10242759;23;20167;-67
2023/05/07 02:59:27;;;;;;;20.57;15.43;;;7.60;99.90;;;;;;10222492;23;20177;-67
2023/05/07 03:03:28;;;;;;;22.37;15.30;;;7.60;99.90;;;;;;10220642;23;20182;-67
2023/05/07 03:07:29;;;;;;;20.37;15.97;;;7.60;99.90;;;;;;10221721;23;20202;-68
2023/05/07 03:11:30;;;;;;;20.47;15.57;;;7.50;99.90;;;;;;10246096;23;20166;-69
2023/05/07 03:15:31;;;;;;;20.57;16.07;;;7.60;99.90;;;;;;10222288;23;20162;-65
2023/05/07 03:19:32;;;;;;;20.37;15.43;;;7.60;99.90;;;;;;10220892;23;20265;-65
2023/05/07 03:23:33;;;;;;;19.87;15.50;;;7.60;99.90;;;;;;10218104;23;20163;-65
2023/05/07 03:27:34;;;;;;;21.90;17.50;;;7.60;99.90;;;;;;10220739;23;20167;-67
2023/05/07 03:31:35;;;;;;;22.47;17.40;;;7.60;99.90;;;;;;10219684;23;20185;-65
2023/05/07 03:35:36;;;;;;;25.57;17.97;;;7.60;99.90;;;;;;10222875;23;20158;-68
2023/05/07 03:39:37;;;;;;;18.97;15.73;;;7.50;99.90;;;;;;10219207;23;20182;-67
2023/05/07 03:43:38;;;;;;;16.80;14.97;;;7.60;99.90;;;;;;10222435;23;20209;-67
2023/05/07 03:47:39;;;;;;;24.67;16.37;;;7.60;99.90;;;;;;10219866;23;20257;-68
2023/05/07 03:51:40;;;;;;;21.07;15.43;;;7.60;99.90;;;;;;10221407;23;20173;-69
2023/05/07 03:55:41;;;;;;;18.63;15.63;;;7.70;99.90;;;;;;10220553;23;20154;-68
2023/05/07 03:59:42;;;;;;;18.07;15.63;;;7.70;99.90;;;;;;10219929;23;20186;-67
2023/05/07 04:03:43;;;;;;;17.93;15.97;;;7.70;99.90;;;;;;10219777;23;20185;-68
2023/05/07 04:07:44;;;;;;;18.90;15.10;;;7.70;99.90;;;;;;10220490;23;20213;-67
2023/05/07 04:11:45;;;;;;;20.83;16.63;;;7.80;99.90;;;;;;10221582;23;20162;-67
2023/05/07 04:15:46;;;;;;;21.10;15.30;;;7.80;99.90;;;;;;10218976;23;20215;-67
2023/05/07 04:19:47;;;;;;;42.20;25.77;;;7.80;99.90;;;;;;10221592;23;20217;-67
2023/05/07 04:23:49;;;;;;;36.43;22.17;;;7.80;99.90;;;;;;10244286;23;20217;-68
2023/05/07 04:27:50;;;;;;;21.00;16.77;;;7.80;99.90;;;;;;10220919;23;20170;-68
2023/05/07 04:31:51;;;;;;;18.17;14.53;;;7.90;99.90;;;;;;10218511;23;20219;-68
2023/05/07 04:35:52;;;;;;;17.70;15.30;;;7.80;99.90;;;;;;10221946;23;20163;-67
2023/05/07 04:39:53;;;;;;;20.70;15.03;;;7.80;99.90;;;;;;10221515;23;20205;-67
2023/05/07 04:43:55;;;;;;;18.60;15.33;;;7.80;99.90;;;;;;10218276;23;20169;-67
2023/05/07 04:47:56;;;;;;;17.40;13.70;;;7.80;99.90;;;;;;10221783;23;20155;-67
2023/05/07 04:51:57;;;;;;;20.27;14.77;;;7.70;99.90;;;;;;10221657;23;20151;-68
2023/05/07 04:55:58;;;;;;;20.20;15.13;;;7.70;99.90;;;;;;10220383;23;20166;-69
2023/05/07 04:59:59;;;;;;;15.50;13.20;;;7.70;99.90;;;;;;10245168;23;20167;-68
2023/05/07 05:04:00;;;;;;;19.20;14.17;;;7.70;99.90;;;;;;10218853;23;20207;-68
2023/05/07 05:08:01;;;;;;;17.97;14.80;;;7.70;99.90;;;;;;10221239;23;20151;-68
2023/05/07 05:12:02;;;;;;;16.77;13.83;;;7.70;99.90;;;;;;10220205;23;20163;-67
2023/05/07 05:16:04;;;;;;;18.57;14.90;;;7.60;99.90;;;;;;10193679;23;20202;-68
2023/05/07 05:20:05;;;;;;;20.23;15.40;;;7.60;99.90;;;;;;10219395;23;20146;-69
2023/05/07 05:24:06;;;;;;;15.83;13.93;;;7.60;99.90;;;;;;10244145;23;20158;-69
2023/05/07 05:28:08;;;;;;;16.43;14.00;;;7.60;99.90;;;;;;10219879;23;20170;-69
2023/05/07 05:32:09;;;;;;;16.77;13.10;;;7.60;99.90;;;;;;10219177;23;20170;-69
2023/05/07 05:36:11;;;;;;;16.67;13.77;;;7.70;99.90;;;;;;10219473;23;20170;-68
2023/05/07 05:40:12;;;;;;;15.67;12.10;;;7.80;99.90;;;;;;10218290;23;20182;-66
2023/05/07 05:44:13;;;;;;;13.93;11.33;;;7.80;99.90;;;;;;10243691;23;20174;-69
2023/05/07 05:48:14;;;;;;;15.93;12.43;;;7.90;99.90;;;;;;10218325;23;20167;-67
2023/05/07 05:52:17;;;;;;;16.40;11.53;;;8.00;99.90;;;;;;10243023;23;20198;-69
2023/05/07 05:56:18;;;;;;;13.17;10.03;;;8.20;99.90;;;;;;10220983;23;20159;-69
2023/05/07 06:00:22;;;;;;;10.77;8.97;;;8.60;99.90;;;;;;10217017;23;20168;-69
2023/05/07 06:04:23;;;;;;;9.83;8.40;;;9.00;99.90;;;;;;10218815;23;20249;-69
2023/05/07 06:08:24;;;;;;;12.83;10.07;;;9.40;99.90;;;;;;10218137;23;20158;-69
2023/05/07 06:12:25;;;;;;;8.43;7.27;;;9.80;99.90;;;;;;10219499;23;20173;-68
2023/05/07 06:16:26;;;;;;;7.50;6.80;;;9.90;99.90;;;;;;10217458;23;20188;-68
2023/05/07 06:20:32;;;;;;;8.23;7.43;;;10.00;99.90;;;;;;10217670;23;20162;-67
2023/05/07 06:24:39;;;;;;;6.73;6.03;;;9.90;99.90;;;;;;10243279;23;20150;-70
2023/05/07 06:28:40;;;;;;;8.27;6.33;;;9.90;99.90;;;;;;10218100;23;20165;-69
2023/05/07 06:32:41;;;;;;;8.13;6.30;;;9.80;99.90;;;;;;10217877;23;20197;-68
2023/05/07 06:36:45;;;;;;;8.40;5.93;;;9.80;99.90;;;;;;10216485;23;20195;-68
2023/05/07 06:40:49;;;;;;;8.57;6.03;;;9.70;99.90;;;;;;10217769;23;20154;-68
2023/05/07 06:44:50;;;;;;;6.43;5.30;;;9.60;99.90;;;;;;10216597;23;20246;-68
2023/05/07 06:48:52;;;;;;;6.23;5.63;;;9.50;99.90;;;;;;10219048;23;20163;-69
2023/05/07 06:52:53;;;;;;;6.87;6.17;;;9.50;99.90;;;;;;10242641;23;20195;-68
2023/05/07 06:56:54;;;;;;;8.33;6.63;;;9.60;99.90;;;;;;10219073;23;20182;-67
2023/05/07 07:00:55;;;;;;;10.30;8.37;;;9.70;99.90;;;;;;10217523;23;20178;-68
2023/05/07 07:04:56;;;;;;;8.40;6.10;;;9.70;99.90;;;;;;10217279;23;20361;-68
2023/05/07 07:08:57;;;;;;;8.17;5.93;;;9.90;99.90;;;;;;10219171;23;20163;-68
2023/05/07 07:12:59;;;;;;;9.17;6.43;;;10.10;99.90;;;;;;10218263;23;20234;-68
2023/05/07 07:17:00;;;;;;;6.17;5.57;;;10.30;99.90;;;;;;10217739;23;20188;-68
2023/05/07 07:21:03;;;;;;;6.57;5.37;;;10.50;1.00;;;;;;10242745;23;20157;-68
2023/05/07 07:25:05;;;;;;;6.30;4.77;;;10.60;1.00;;;;;;10218120;23;20162;-68
2023/05/07 07:29:06;;;;;;;7.33;5.57;;;10.80;1.00;;;;;;10245986;23;20275;-67
2023/05/07 07:33:08;;;;;;;7.40;6.20;;;10.70;1.00;;;;;;10218711;23;20168;-68
2023/05/07 07:37:09;;;;;;;5.70;4.50;;;10.70;1.00;;;;;;10222712;23;20233;-68
2023/05/07 07:41:09;;;;;;;5.10;4.70;;;10.60;1.00;;;;;;10220482;23;20175;-68
2023/05/07 07:45:13;;;;;;;5.87;4.93;;;10.60;1.00;;;;;;10223115;23;20162;-70
2023/05/07 07:49:15;;;;;;;6.13;5.23;;;10.60;1.00;;;;;;10246214;23;20162;-68
2023/05/07 07:53:15;;;;;;;11.80;7.20;;;10.50;1.00;;;;;;10246991;23;20165;-69
2023/05/07 07:57:16;;;;;;;8.03;7.03;;;10.20;1.00;;;;;;10222367;23;20211;-68
2023/05/07 08:01:17;;;;;;;13.97;10.43;;;10.00;1.00;;;;;;10220851;23;20183;-68
2023/05/07 08:05:18;;;;;;;9.30;8.40;;;9.90;16.40;;;;;;10221545;23;20205;-69
2023/05/07 08:09:19;;;;;;;6.97;6.23;;;10.00;2.80;;;;;;10221266;23;20155;-68
2023/05/07 08:13:20;;;;;;;13.27;12.07;;;10.10;1.00;;;;;;10244859;23;20237;-69
2023/05/07 08:17:24;;;;;;;34.97;22.80;;;10.10;1.00;;;;;;10219426;23;20242;-68
2023/05/07 08:21:26;;;;;;;27.07;15.07;;;10.10;1.00;;;;;;10221618;23;20227;-69
2023/05/07 08:25:26;;;;;;;18.73;12.93;;;10.10;1.00;;;;;;10220891;23;20152;-68
2023/05/07 08:29:27;;;;;;;10.97;8.10;;;10.10;1.00;;;;;;10221142;23;20207;-67
2023/05/07 08:33:28;;;;;;;16.97;13.43;;;10.20;1.00;;;;;;10220631;23;20155;-69
2023/05/07 08:37:29;;;;;;;20.47;13.43;;;10.30;1.00;;;;;;10220029;23;20294;-68
2023/05/07 08:41:31;;;;;;;12.57;9.17;;;10.40;1.00;;;;;;10219282;23;20236;-68
2023/05/07 08:45:35;;;;;;;10.10;7.80;;;10.50;1.00;;;;;;10219974;23;20164;-67
2023/05/07 08:49:37;;;;;;;10.43;7.83;;;10.80;1.00;;;;;;10246654;23;20182;-67
2023/05/07 08:53:41;;;;;;;7.83;6.17;;;11.10;99.90;;;;;;10220402;23;20162;-69
2023/05/07 08:57:42;;;;;;;6.37;5.40;;;11.30;99.90;;;;;;10219161;23;20194;-69
2023/05/07 09:01:47;;;;;;;7.73;5.83;;;11.10;99.90;;;;;;10244520;23;20165;-70
2023/05/07 09:05:48;;;;;;;7.43;6.63;;;11.10;99.90;;;;;;10217969;23;20185;-68
2023/05/07 09:09:49;;;;;;;8.13;7.17;;;11.20;99.90;;;;;;10218706;23;20168;-66
2023/05/07 09:13:55;;;;;;;10.77;8.50;;;11.50;99.90;;;;;;10241564;23;20170;-68
2023/05/07 09:18:01;;;;;;;8.40;7.60;;;11.70;99.90;;;;;;10217390;23;20197;-69
2023/05/07 09:22:04;;;;;;;10.73;8.40;;;11.60;99.90;;;;;;10216839;23;20173;-68
2023/05/07 09:26:07;;;;;;;12.90;11.23;;;11.40;99.90;;;;;;10216708;23;20383;-68
2023/05/07 09:30:08;;;;;;;8.90;7.67;;;11.80;99.90;;;;;;10218454;23;20189;-68
2023/05/07 09:34:09;;;;;;;7.27;6.50;;;12.40;99.90;;;;;;10219161;23;20266;-70
2023/05/07 09:38:10;;;;;;;8.50;7.10;;;12.70;99.90;;;;;;10219687;23;20186;-67
2023/05/07 09:42:12;;;;;;;11.17;8.80;;;12.90;99.90;;;;;;10219899;23;20201;-67
2023/05/07 09:46:17;;;;;;;34.17;18.27;;;13.10;99.90;;;;;;10243947;23;20246;-67
2023/05/07 09:50:47;;;;;;;15.63;10.30;;;12.70;99.90;;;;;;10217931;23;20217;-66
2023/05/07 09:54:59;;;;;;;15.07;9.70;;;12.30;99.90;;;;;;10243190;23;20198;-67
2023/05/07 09:59:01;;;;;;;10.23;8.40;;;11.90;99.90;;;;;;10194030;23;20193;-67
2023/05/07 10:03:04;;;;;;;15.03;13.50;;;11.70;99.90;;;;;;10217848;23;20265;-66
2023/05/07 10:07:06;;;;;;;39.63;17.73;;;11.40;99.90;;;;;;10220710;23;20229;-68
2023/05/07 10:11:11;;;;;;;90.80;29.80;;;11.10;99.90;;;;;;10220847;23;20220;-69
2023/05/07 10:15:12;;;;;;;60.13;21.80;;;10.80;99.90;;;;;;10218266;23;20211;-69
2023/05/07 10:19:14;;;;;;;33.77;13.77;;;10.70;99.90;;;;;;10219689;23;20188;-68
2023/05/07 10:23:23;;;;;;;30.40;27.40;;;11.20;99.90;;;;;;10242616;23;20177;-70
2023/05/07 10:27:24;;;;;;;60.30;23.70;;;11.90;99.90;;;;;;10217014;23;20159;-70
2023/05/07 10:31:54;;;;;;;50.93;20.23;;;12.40;99.90;;;;;;10218973;23;20170;-68
2023/05/07 10:36:00;;;;;;;40.87;16.70;;;12.80;99.90;;;;;;10216394;23;20147;-70
2023/05/07 10:40:02;;;;;;;78.77;39.77;;;12.90;99.90;;;;;;10220421;23;20189;-68
2023/05/07 10:44:03;;;;;;;26.30;13.50;;;12.50;99.90;;;;;;10218426;23;20168;-67
2023/05/07 10:48:17;;;;;;;9.07;6.50;;;12.10;99.90;;;;;;10220498;23;20162;-71
2023/05/07 10:52:24;;;;;;;17.87;10.57;;;11.70;99.90;;;;;;10221050;23;20171;-68
2023/05/07 10:56:28;;;;;;;19.73;10.93;;;11.40;99.90;;;;;;10218761;23;20233;-69
2023/05/07 11:00:29;;;;;;;28.77;15.63;;;11.20;99.90;;;;;;10218896;23;20151;-70
2023/05/07 11:04:34;;;;;;;15.30;9.40;;;11.20;99.90;;;;;;10219189;23;20264;-69
2023/05/07 11:08:57;;;;;;;10.17;7.00;;;11.50;99.90;;;;;;10241870;23;20198;-68
2023/05/07 11:12:58;;;;;;;8.80;6.60;;;11.90;99.90;;;;;;10219022;23;20166;-69
2023/05/07 11:17:06;;;;;;;11.07;7.03;;;12.20;99.90;;;;;;10218012;23;20193;-66
2023/05/07 11:21:08;;;;;;;8.30;5.47;;;12.40;99.90;;;;;;10224400;23;20143;-69
2023/05/07 11:25:09;;;;;;;13.33;7.73;;;12.30;99.90;;;;;;10223034;23;20258;-68
2023/05/07 11:29:12;;;;;;;12.67;7.47;;;11.90;99.90;;;;;;10223628;23;20158;-70
2023/05/07 11:33:17;;;;;;;12.17;7.90;;;11.60;99.90;;;;;;10221088;23;20249;-67
2023/05/07 11:37:19;;;;;;;11.70;6.80;;;11.50;99.90;;;;;;10220149;23;20260;-68
2023/05/07 11:41:20;;;;;;;6.83;5.40;;;11.50;99.90;;;;;;10221622;23;20162;-72
2023/05/07 11:45:27;;;;;;;6.13;5.53;;;11.60;99.90;;;;;;10219350;23;20253;-71
2023/05/07 11:49:29;;;;;;;6.13;5.50;;;11.80;99.90;;;;;;10220986;23;20347;-69
2023/05/07 11:53:44;;;;;;;6.23;5.63;;;12.10;99.90;;;;;;10219504;23;20197;-68
2023/05/07 11:57:45;;;;;;;17.67;10.67;;;12.60;99.90;;;;;;10221021;23;20167;-70
2023/05/07 12:01:47;;;;;;;9.10;6.90;;;12.90;99.90;;;;;;10221754;23;20150;-70
2023/05/07 12:05:48;;;;;;;15.50;11.70;;;13.20;92.60;;;;;;10220384;23;20170;-70
2023/05/07 12:09:50;;;;;;;7.03;5.87;;;13.40;57.00;;;;;;10222386;23;20155;-73
2023/05/07 12:13:51;;;;;;;5.37;4.70;;;13.20;48.90;;;;;;10219725;23;20162;-69
2023/05/07 12:17:52;;;;;;;11.93;7.73;;;12.60;58.40;;;;;;10222381;23;20178;-69
2023/05/07 12:21:53;;;;;;;9.93;6.93;;;12.10;99.90;;;;;;10222689;23;20177;-68
2023/05/07 12:25:59;;;;;;;7.63;5.97;;;11.60;99.90;;;;;;10222599;23;20234;-69
2023/05/07 12:30:00;;;;;;;7.70;5.63;;;11.40;99.90;;;;;;10220528;23;20168;-67
2023/05/07 12:34:07;;;;;;;11.83;8.37;;;11.30;99.90;;;;;;10219522;23;20165;-68
2023/05/07 12:38:12;;;;;;;9.93;8.10;;;11.30;99.90;;;;;;10221543;23;20188;-69
2023/05/07 12:42:23;;;;;;;10.40;7.33;;;11.30;99.90;;;;;;10219397;23;20159;-69
2023/05/07 12:46:24;;;;;;;9.73;7.40;;;11.50;99.90;;;;;;10220914;23;20161;-71
2023/05/07 12:50:25;;;;;;;6.63;4.60;;;11.70;99.90;;;;;;10220322;23;20173;-66
2023/05/07 12:54:38;;;;;;;7.33;5.60;;;11.90;99.90;;;;;;10222919;23;20155;-68
2023/05/07 12:58:39;;;;;;;6.97;5.43;;;12.10;99.90;;;;;;10219599;23;20182;-68
2023/05/07 13:02:44;;;;;;;7.83;4.90;;;12.20;99.90;;;;;;10243387;23;20183;-67
2023/05/07 13:06:45;;;;;;;6.47;5.00;;;12.40;95.20;;;;;;10219220;23;20269;-68
2023/05/07 13:10:46;;;;;;;4.17;3.77;;;12.70;71.10;;;;;;10219525;23;20177;-67
2023/05/07 13:14:50;;;;;;;9.70;5.97;;;12.70;51.20;;;;;;10219689;23;20170;-69
2023/05/07 13:18:51;;;;;;;9.37;5.87;;;12.40;62.70;;;;;;10218532;23;20209;-67
2023/05/07 13:22:52;;;;;;;5.57;3.90;;;12.50;79.30;;;;;;10217094;23;20159;-66
2023/05/07 13:26:53;;;;;;;4.80;4.03;;;12.60;49.10;;;;;;10218939;23;20232;-68
2023/05/07 13:30:54;;;;;;;9.03;4.97;;;12.50;51.40;;;;;;10213970;23;20178;-69
2023/05/07 13:34:55;;;;;;;7.77;5.83;;;12.60;59.70;;;;;;10216452;23;20170;-67
2023/05/07 13:39:00;;;;;;;8.60;6.33;;;12.50;56.00;;;;;;10219091;23;20221;-67
2023/05/07 13:43:04;;;;;;;15.63;11.43;;;12.30;93.20;;;;;;10219693;23;20252;-69
2023/05/07 13:47:06;;;;;;;18.03;11.33;;;12.00;93.10;;;;;;10218694;23;20163;-68
2023/05/07 13:51:07;;;;;;;8.43;6.27;;;11.80;99.90;;;;;;10217980;23;20195;-68
2023/05/07 13:55:08;;;;;;;14.97;9.47;;;11.90;99.90;;;;;;10220375;23;20162;-67
2023/05/07 13:59:14;;;;;;;13.90;7.67;;;12.10;99.90;;;;;;10218129;23;20237;-69
2023/05/07 14:03:19;;;;;;;9.00;6.87;;;12.30;92.50;;;;;;10218556;23;20278;-67
2023/05/07 14:07:20;;;;;;;11.10;7.63;;;12.40;89.30;;;;;;10219904;23;20170;-69
2023/05/07 14:11:21;;;;;;;6.27;4.77;;;12.40;95.90;;;;;;10219402;23;20233;-69
2023/05/07 14:15:23;;;;;;;5.80;4.60;;;12.60;90.00;;;;;;10218724;23;20178;-70
2023/05/07 14:19:30;;;;;;;4.80;4.00;;;12.90;76.90;;;;;;10218772;23;20237;-70
2023/05/07 14:23:33;;;;;;;9.53;7.23;;;12.90;60.30;;;;;;10219263;23;20151;-68
2023/05/07 14:27:34;;;;;;;7.10;5.03;;;12.90;43.50;;;;;;10220644;23;20154;-69
2023/05/07 14:31:38;;;;;;;18.73;14.10;;;12.90;33.90;;;;;;10218850;23;20166;-69
2023/05/07 14:35:40;;;;;;;6.63;5.93;;;12.50;47.50;;;;;;10219880;23;20186;-69
2023/05/07 14:39:43;;;;;;;13.07;8.80;;;12.10;86.30;;;;;;10218449;23;20190;-68
2023/05/07 14:43:49;;;;;;;17.53;11.73;;;11.80;99.90;;;;;;10241600;23;20162;-70
2023/05/07 14:47:51;;;;;;;13.53;8.63;;;11.60;99.90;;;;;;10218415;23;20162;-67
2023/05/07 14:51:53;;;;;;;5.37;4.47;;;11.70;99.90;;;;;;10242576;23;20221;-68
2023/05/07 14:55:54;;;;;;;17.20;10.90;;;11.80;99.90;;;;;;10218540;23;20201;-70
2023/05/07 14:59:55;;;;;;;35.63;28.67;;;11.90;99.90;;;;;;10219829;23;20178;-69
2023/05/07 15:03:56;;;;;;;10.37;6.33;;;12.00;99.90;;;;;;10219121;23;20237;-68
2023/05/07 15:07:57;;;;;;;8.03;6.77;;;12.00;99.90;;;;;;10217850;23;20153;-68
2023/05/07 15:11:58;;;;;;;6.70;4.83;;;12.00;99.90;;;;;;10217224;23;20213;-69
2023/05/07 15:15:59;;;;;;;23.53;12.27;;;11.80;99.90;;;;;;10217781;23;20174;-70
2023/05/07 15:20:00;;;;;;;11.10;7.90;;;11.50;99.90;;;;;;10220187;23;20257;-68
2023/05/07 15:24:02;;;;;;;8.00;5.60;;;11.30;99.90;;;;;;10220529;23;20164;-69
2023/05/07 15:28:03;;;;;;;8.27;6.03;;;11.10;99.90;;;;;;10216897;23;20169;-69
2023/05/07 15:32:04;;;;;;;6.63;4.33;;;11.00;99.90;;;;;;10216659;23;20166;-67
2023/05/07 15:36:06;;;;;;;4.90;4.40;;;10.90;99.90;;;;;;10218660;23;20154;-70
2023/05/07 15:40:08;;;;;;;7.23;5.70;;;10.90;99.90;;;;;;10220007;23;20197;-69
2023/05/07 15:44:09;;;;;;;5.70;4.17;;;10.80;99.90;;;;;;10242629;23;20167;-69
2023/05/07 15:48:10;;;;;;;5.73;4.80;;;10.90;99.90;;;;;;10216646;23;20166;-69
2023/05/07 15:52:16;;;;;;;10.70;7.50;;;10.90;99.90;;;;;;10214260;23;20300;-69
2023/05/07 15:56:17;;;;;;;11.63;8.23;;;10.80;99.90;;;;;;10220457;23;20147;-69
2023/05/07 16:00:18;;;;;;;10.37;7.10;;;10.80;99.90;;;;;;10216740;23;20190;-67
2023/05/07 16:04:19;;;;;;;9.70;7.27;;;10.80;99.90;;;;;;10217495;23;20336;-70
2023/05/07 16:08:20;;;;;;;12.73;9.73;;;10.70;99.90;;;;;;10218199;23;20169;-68
2023/05/07 16:12:25;;;;;;;15.30;8.13;;;10.70;99.90;;;;;;10219125;23;20271;-69
2023/05/07 16:16:28;;;;;;;7.73;5.97;;;10.60;99.90;;;;;;10219093;23;20157;-68
2023/05/07 16:20:29;;;;;;;21.47;10.30;;;10.60;99.90;;;;;;10219585;23;20159;-70
2023/05/07 16:24:31;;;;;;;13.73;7.27;;;10.60;99.90;;;;;;10221515;23;20160;-69
2023/05/07 16:28:32;;;;;;;15.40;9.40;;;10.60;99.90;;;;;;10220235;23;20200;-70
2023/05/07 16:32:33;;;;;;;26.63;14.27;;;10.70;99.90;;;;;;10219125;23;20162;-71
2023/05/07 16:36:35;;;;;;;44.40;17.53;;;10.70;99.90;;;;;;10221172;23;20207;-71
2023/05/07 16:40:39;;;;;;;17.87;10.33;;;10.60;99.90;;;;;;10220705;23;20186;-70
2023/05/07 16:44:40;;;;;;;11.43;8.00;;;10.60;99.90;;;;;;10224933;23;20178;-72
2023/05/07 16:48:41;;;;;;;11.47;7.93;;;10.60;99.90;;;;;;10219841;23;20241;-68
2023/05/07 16:52:43;;;;;;;11.00;7.47;;;10.60;99.90;;;;;;10221498;23;20178;-68
2023/05/07 16:56:44;;;;;;;9.83;5.77;;;10.60;99.90;;;;;;10220136;23;20192;-69
2023/05/07 17:00:45;;;;;;;9.40;6.20;;;10.50;99.90;;;;;;10245087;23;20167;-69
2023/05/07 17:04:46;;;;;;;11.83;7.03;;;10.40;99.90;;;;;;10220951;23;20190;-68
2023/05/07 17:08:50;;;;;;;12.73;8.23;;;10.30;99.90;;;;;;10221799;23;20170;-69
2023/05/07 17:12:51;;;;;;;7.37;5.27;;;10.20;99.90;;;;;;10222043;23;20157;-70
2023/05/07 17:16:52;;;;;;;5.90;5.23;;;10.10;99.90;;;;;;10220561;23;20185;-69
2023/05/07 17:20:53;;;;;;;6.53;5.10;;;10.10;99.90;;;;;;10221332;23;20161;-69
2023/05/07 17:24:55;;;;;;;7.00;5.70;;;10.10;99.90;;;;;;10221952;23;20163;-68
2023/05/07 17:28:55;;;;;;;4.87;4.33;;;10.00;99.90;;;;;;10222739;23;20200;-68
2023/05/07 17:32:56;;;;;;;4.17;3.77;;;9.90;99.90;;;;;;10218575;23;20164;-69
2023/05/07 17:36:57;;;;;;;7.43;5.07;;;9.90;99.90;;;;;;10220281;23;20191;-69
2023/05/07 17:40:58;;;;;;;7.83;6.27;;;9.80;99.90;;;;;;10244297;23;20191;-69
2023/05/07 17:44:59;;;;;;;5.37;4.40;;;9.80;99.90;;;;;;10220578;23;20163;-70
2023/05/07 17:49:00;;;;;;;6.80;5.20;;;9.70;99.90;;;;;;10219476;23;20167;-68
2023/05/07 17:53:02;;;;;;;7.97;5.40;;;9.70;99.90;;;;;;10218794;23;20173;-70
2023/05/07 17:57:03;;;;;;;6.27;5.00;;;9.60;99.90;;;;;;10218862;23;20257;-67
2023/05/07 18:01:04;;;;;;;5.50;4.77;;;9.60;99.90;;;;;;10219144;23;20238;-70
2023/05/07 18:05:06;;;;;;;4.90;4.40;;;9.50;99.90;;;;;;10219528;23;20203;-69
2023/05/07 18:09:07;;;;;;;4.57;3.40;;;9.50;99.90;;;;;;10219045;23;20171;-70
2023/05/07 18:13:12;;;;;;;9.80;5.57;;;9.40;99.90;;;;;;10219239;23;20172;-70
2023/05/07 18:17:13;;;;;;;9.93;6.60;;;9.40;99.90;;;;;;10218989;23;20276;-70
2023/05/07 18:21:17;;;;;;;6.40;4.73;;;9.40;99.90;;;;;;10217809;23;20166;-70
2023/05/07 18:25:18;;;;;;;9.10;5.53;;;9.30;99.90;;;;;;10219985;23;20159;-71
2023/05/07 18:29:20;;;;;;;7.27;5.03;;;9.30;99.90;;;;;;10220752;23;20161;-68
2023/05/07 18:33:21;;;;;;;8.33;6.33;;;9.20;99.90;;;;;;10243444;23;20163;-71
2023/05/07 18:37:22;;;;;;;6.13;4.83;;;9.20;99.90;;;;;;10221327;23;20190;-70
2023/05/07 18:41:23;;;;;;;4.90;4.37;;;9.20;99.90;;;;;;10221600;23;20148;-69
2023/05/07 18:45:27;;;;;;;5.37;4.53;;;9.20;99.90;;;;;;10244769;23;20162;-71
2023/05/07 18:49:28;;;;;;;5.20;4.10;;;9.10;99.90;;;;;;10220727;23;20189;-74
2023/05/07 18:53:29;;;;;;;8.10;5.90;;;9.10;99.90;;;;;;10221133;23;20206;-70
2023/05/07 18:57:30;;;;;;;12.37;7.97;;;9.10;99.90;;;;;;10219517;23;20182;-69
2023/05/07 19:01:32;;;;;;;9.57;6.33;;;9.10;99.90;;;;;;10219907;23;20185;-68
2023/05/07 19:05:32;;;;;;;7.70;5.33;;;9.00;1.00;;;;;;10243947;23;20249;-71
2023/05/07 19:09:34;;;;;;;6.37;4.43;;;9.00;1.00;;;;;;10219703;23;20167;-70
2023/05/07 19:13:35;;;;;;;6.20;4.90;;;8.90;1.00;;;;;;10217070;23;20167;-63
2023/05/07 19:17:36;;;;;;;5.43;4.20;;;8.90;1.00;;;;;;10221817;23;20180;-69
2023/05/07 19:21:40;;;;;;;8.83;6.17;;;8.90;1.00;;;;;;10243988;23;20155;-69
2023/05/07 19:25:44;;;;;;;10.10;6.40;;;8.90;1.00;;;;;;10219076;23;20167;-67
2023/05/07 19:29:45;;;;;;;11.83;7.37;;;8.90;1.00;;;;;;10218408;23;20167;-69
2023/05/07 19:33:47;;;;;;;14.63;7.63;;;8.80;1.00;;;;;;10218580;23;20163;-70
2023/05/07 19:37:48;;;;;;;11.83;7.40;;;8.80;1.00;;;;;;10243881;23;20202;-69
2023/05/07 19:41:50;;;;;;;12.30;7.50;;;8.80;1.00;;;;;;10222289;23;20201;-68
2023/05/07 19:45:54;;;;;;;10.30;6.40;;;8.80;1.00;;;;;;10249059;23;20186;-66
2023/05/07 19:49:55;;;;;;;11.57;6.70;;;8.80;1.00;;;;;;10248057;23;20205;-69
2023/05/07 19:53:57;;;;;;;5.30;3.90;;;8.80;1.00;;;;;;10221633;23;20174;-66
2023/05/07 19:57:58;;;;;;;4.67;3.93;;;8.80;99.90;;;;;;10222794;23;20193;-69
2023/05/07 20:01:59;;;;;;;4.30;3.23;;;8.80;99.90;;;;;;10222930;23;20155;-66
2023/05/07 20:06:01;;;;;;;3.37;3.07;;;8.80;99.90;;;;;;10221622;23;20182;-68
2023/05/07 20:10:03;;;;;;;10.50;6.77;;;8.80;99.90;;;;;;10221782;23;20166;-71
2023/05/07 20:14:04;;;;;;;10.40;6.30;;;8.80;99.90;;;;;;10221735;23;20277;-68
2023/05/07 20:18:06;;;;;;;10.30;5.27;;;8.80;99.90;;;;;;10222264;23;20249;-69
2023/05/07 20:22:07;;;;;;;6.90;3.83;;;8.80;99.90;;;;;;10222920;23;20166;-69
2023/05/07 20:26:08;;;;;;;5.90;4.23;;;8.80;99.90;;;;;;10248239;23;20187;-69
2023/05/07 20:30:09;;;;;;;6.17;4.60;;;8.80;99.90;;;;;;10222364;23;20173;-69
2023/05/07 20:34:10;;;;;;;10.17;5.13;;;8.80;99.90;;;;;;10225822;23;20154;-69
2023/05/07 20:38:11;;;;;;;9.33;5.57;;;8.70;99.90;;;;;;10223456;23;20193;-68